createdAt,value
2023-04-29T00:00:01.909Z,7.85
2023-04-29T00:03:03.685Z,7.85
2023-04-29T00:06:05.801Z,7.85
2023-04-29T00:09:07.465Z,7.86
2023-04-29T00:12:10.292Z,7.87
2023-04-29T00:15:12.048Z,7.87
2023-04-29T00:18:14.209Z,7.85
2023-04-29T00:21:15.953Z,7.84
2023-04-29T00:24:17.635Z,7.82
2023-04-29T00:27:19.301Z,7.78
2023-04-29T00:30:20.917Z,7.76
2023-04-29T00:33:22.592Z,7.72
2023-04-29T00:36:24.141Z,7.70
2023-04-29T00:39:25.937Z,7.67
2023-04-29T00:42:29.230Z,7.65
2023-04-29T00:45:30.816Z,7.62
2023-04-29T00:48:33.314Z,7.60
2023-04-29T00:51:36.817Z,7.56
2023-04-29T00:54:39.193Z,7.54
2023-04-29T00:57:41.228Z,7.53
2023-04-29T01:00:44.189Z,7.51
2023-04-29T01:03:46.048Z,7.49
2023-04-29T01:06:53.821Z,7.47
2023-04-29T01:10:09.947Z,7.44
2023-04-29T01:13:46.307Z,7.39
2023-04-29T01:17:00.016Z,7.37
2023-04-29T01:20:02.827Z,7.34
2023-04-29T01:23:04.544Z,7.32
2023-04-29T01:26:06.183Z,7.31
2023-04-29T01:29:36.724Z,7.27
2023-04-29T01:32:47.602Z,7.25
2023-04-29T01:36:07.523Z,7.24
2023-04-29T01:39:26.548Z,7.22
2023-04-29T01:42:38.243Z,7.21
2023-04-29T01:45:41.388Z,7.19
2023-04-29T01:48:43.577Z,7.17
2023-04-29T01:51:45.141Z,7.17
2023-04-29T01:54:47.273Z,7.16
2023-04-29T01:57:48.846Z,7.16
2023-04-29T02:00:50.554Z,7.15
2023-04-29T02:03:52.324Z,7.16
2023-04-29T02:06:54.138Z,7.14
2023-04-29T02:09:55.773Z,7.12
2023-04-29T02:12:57.290Z,7.12
2023-04-29T02:16:07.711Z,7.11
2023-04-29T02:19:09.235Z,7.09
2023-04-29T02:22:12.582Z,7.09
2023-04-29T02:25:14.774Z,7.09
2023-04-29T02:28:16.343Z,7.08
2023-04-29T02:31:18.028Z,7.07
2023-04-29T02:34:19.531Z,7.09
2023-04-29T02:37:21.276Z,7.08
2023-04-29T02:40:25.656Z,7.08
2023-04-29T02:43:30.910Z,7.05
2023-04-29T02:46:33.619Z,7.04
2023-04-29T02:49:35.153Z,7.05
2023-04-29T02:52:36.859Z,7.04
2023-04-29T02:55:38.387Z,7.02
2023-04-29T02:58:40.019Z,7.02
2023-04-29T03:01:42.011Z,7.00
2023-04-29T03:04:43.652Z,7.00
2023-04-29T03:07:45.220Z,7.00
2023-04-29T03:10:46.746Z,7.00
2023-04-29T03:13:48.290Z,7.00
2023-04-29T03:16:49.995Z,7.00
2023-04-29T03:19:53.425Z,6.99
2023-04-29T03:22:55.129Z,6.98
2023-04-29T03:25:56.846Z,6.97
2023-04-29T03:28:59.101Z,6.96
2023-04-29T03:32:00.805Z,6.95
2023-04-29T03:35:02.348Z,7.15
2023-04-29T03:38:04.075Z,7.19
2023-04-29T03:41:05.861Z,7.16
2023-04-29T03:44:07.525Z,7.11
2023-04-29T03:47:09.094Z,7.07
2023-04-29T03:50:10.840Z,7.02
2023-04-29T03:53:13.021Z,6.99
2023-04-29T03:56:15.870Z,6.95
2023-04-29T03:59:18.535Z,6.91
2023-04-29T04:02:20.149Z,6.88
2023-04-29T04:05:25.179Z,6.84
2023-04-29T04:08:27.171Z,6.81
2023-04-29T04:11:29.014Z,6.80
2023-04-29T04:14:30.678Z,6.78
2023-04-29T04:17:32.270Z,6.79
2023-04-29T04:20:36.895Z,6.78
2023-04-29T04:23:41.862Z,6.77
2023-04-29T04:26:43.754Z,6.75
2023-04-29T04:29:45.286Z,6.75
2023-04-29T04:32:46.874Z,6.74
2023-04-29T04:35:48.576Z,6.72
2023-04-29T04:38:50.093Z,6.72
2023-04-29T04:41:51.649Z,6.72
2023-04-29T04:44:54.020Z,6.72
2023-04-29T04:47:55.754Z,6.74
2023-04-29T04:50:57.380Z,6.75
2023-04-29T04:53:58.951Z,6.75
2023-04-29T04:57:00.535Z,6.74
2023-04-29T05:00:02.481Z,6.74
2023-04-29T05:03:04.313Z,6.74
2023-04-29T05:06:06.069Z,6.76
2023-04-29T05:09:07.706Z,6.77
2023-04-29T05:12:09.335Z,6.76
2023-04-29T05:15:11.387Z,6.85
2023-04-29T05:18:12.972Z,6.87
2023-04-29T05:21:16.526Z,6.88
2023-04-29T05:24:19.428Z,6.90
2023-04-29T05:27:21.197Z,6.90
2023-04-29T05:30:23.129Z,6.90
2023-04-29T05:33:24.792Z,6.90
2023-04-29T05:36:28.105Z,6.91
2023-04-29T05:39:29.657Z,7.09
2023-04-29T05:42:31.338Z,7.19
2023-04-29T05:45:32.906Z,7.27
2023-04-29T05:48:34.498Z,7.30
2023-04-29T05:51:36.169Z,7.31
2023-04-29T05:54:37.767Z,7.28
2023-04-29T05:57:39.327Z,7.26
2023-04-29T06:00:41.020Z,7.23
2023-04-29T06:03:42.655Z,7.21
2023-04-29T06:06:44.567Z,7.18
2023-04-29T06:09:46.234Z,7.17
2023-04-29T06:12:50.844Z,7.17
2023-04-29T06:15:52.515Z,7.17
2023-04-29T06:18:54.147Z,7.15
2023-04-29T06:21:55.926Z,7.16
2023-04-29T06:24:57.507Z,7.15
2023-04-29T06:27:59.100Z,7.18
2023-04-29T06:31:00.818Z,7.19
2023-04-29T06:34:02.343Z,7.21
2023-04-29T06:37:04.793Z,7.24
2023-04-29T06:40:07.511Z,7.27
2023-04-29T06:43:09.092Z,7.29
2023-04-29T06:46:11.481Z,7.32
2023-04-29T06:49:13.292Z,7.34
2023-04-29T06:52:15.030Z,7.37
2023-04-29T06:55:17.094Z,7.39
2023-04-29T06:58:20.013Z,7.43
2023-04-29T07:01:22.156Z,7.46
2023-04-29T07:04:23.782Z,7.50
2023-04-29T07:07:25.350Z,7.52
2023-04-29T07:10:27.777Z,7.55
2023-04-29T07:13:29.453Z,7.58
2023-04-29T07:16:31.624Z,7.63
2023-04-29T07:19:33.254Z,7.68
2023-04-29T07:22:34.800Z,7.73
2023-04-29T07:25:36.879Z,7.79
2023-04-29T07:28:38.545Z,7.83
2023-04-29T07:31:40.090Z,7.88
2023-04-29T07:34:41.692Z,7.92
2023-04-29T07:37:44.201Z,7.95
2023-04-29T07:40:48.472Z,8.00
2023-04-29T07:43:50.022Z,8.05
2023-04-29T07:46:51.566Z,8.10
2023-04-29T07:49:53.146Z,8.18
2023-04-29T07:52:55.331Z,8.25
2023-04-29T07:55:56.991Z,8.34
2023-04-29T07:59:00.198Z,8.43
2023-04-29T08:02:01.817Z,8.50
2023-04-29T08:05:04.341Z,8.57
2023-04-29T08:08:06.861Z,8.66
2023-04-29T08:11:08.490Z,8.80
2023-04-29T08:14:10.064Z,8.99
2023-04-29T08:17:11.659Z,9.18
2023-04-29T08:20:13.435Z,9.39
2023-04-29T08:23:15.751Z,9.55
2023-04-29T08:26:17.713Z,9.75
2023-04-29T08:29:19.555Z,9.93
2023-04-29T08:32:21.161Z,10.09
2023-04-29T08:35:22.906Z,10.25
2023-04-29T08:38:25.469Z,10.42
2023-04-29T08:41:27.462Z,10.56
2023-04-29T08:44:30.392Z,10.70
2023-04-29T08:47:33.186Z,10.86
2023-04-29T08:50:40.183Z,11.01
2023-04-29T08:53:41.784Z,11.19
2023-04-29T08:56:47.279Z,11.37
2023-04-29T08:59:48.935Z,11.49
2023-04-29T09:02:52.261Z,11.55
2023-04-29T09:05:56.180Z,11.63
2023-04-29T09:08:59.630Z,11.72
2023-04-29T09:12:01.152Z,11.83
2023-04-29T09:15:03.552Z,11.95
2023-04-29T09:18:05.969Z,12.06
2023-04-29T09:21:23.022Z,12.15
2023-04-29T09:24:28.692Z,12.23
2023-04-29T09:27:30.286Z,12.36
2023-04-29T09:30:31.822Z,12.52
2023-04-29T09:33:50.519Z,12.69
2023-04-29T09:36:56.997Z,12.85
2023-04-29T09:39:58.538Z,13.05
2023-04-29T09:43:01.263Z,13.21
2023-04-29T09:46:02.920Z,13.36
2023-04-29T09:49:06.693Z,13.51
2023-04-29T09:52:13.499Z,13.66
2023-04-29T09:55:16.032Z,13.80
2023-04-29T09:58:30.223Z,13.97
2023-04-29T10:01:32.126Z,14.05
2023-04-29T10:04:36.681Z,14.10
2023-04-29T10:07:41.106Z,14.19
2023-04-29T10:10:43.904Z,14.24
2023-04-29T10:13:46.196Z,14.33
2023-04-29T10:17:04.002Z,14.44
2023-04-29T10:20:06.432Z,14.54
2023-04-29T10:23:10.961Z,14.65
2023-04-29T10:26:14.161Z,14.78
2023-04-29T10:29:17.537Z,14.86
2023-04-29T10:32:21.984Z,14.93
2023-04-29T10:35:25.856Z,15.06
2023-04-29T10:38:50.870Z,15.20
2023-04-29T10:41:53.624Z,15.28
2023-04-29T10:45:32.727Z,15.36
2023-04-29T10:48:34.305Z,15.45
2023-04-29T10:51:40.418Z,15.52
2023-04-29T10:54:42.547Z,15.57
2023-04-29T10:57:45.130Z,15.61
2023-04-29T11:00:47.272Z,15.64
2023-04-29T11:03:58.865Z,15.66
2023-04-29T11:07:01.172Z,15.71
2023-04-29T11:10:03.316Z,15.68
2023-04-29T11:13:23.380Z,15.68
2023-04-29T11:16:29.381Z,15.71
2023-04-29T11:19:35.958Z,15.74
2023-04-29T11:22:38.183Z,15.71
2023-04-29T11:25:39.765Z,15.73
2023-04-29T11:28:42.669Z,15.70
2023-04-29T11:31:44.299Z,15.71
2023-04-29T11:34:46.105Z,15.75
2023-04-29T11:37:47.745Z,15.83
2023-04-29T11:40:50.152Z,15.85
2023-04-29T11:44:01.164Z,15.82
2023-04-29T11:47:04.393Z,15.84
2023-04-29T11:50:08.943Z,15.88
2023-04-29T11:53:10.778Z,15.90
2023-04-29T11:56:12.669Z,15.85
2023-04-29T11:59:14.294Z,15.89
2023-04-29T12:02:15.968Z,15.95
2023-04-29T12:05:19.321Z,15.95
2023-04-29T12:08:26.503Z,15.99
2023-04-29T12:11:28.974Z,15.99
2023-04-29T12:14:30.682Z,15.97
2023-04-29T12:17:32.862Z,15.93
2023-04-29T12:20:34.918Z,15.90
2023-04-29T12:23:37.083Z,15.90
2023-04-29T12:26:40.431Z,15.89
2023-04-29T12:29:42.171Z,15.83
2023-04-29T12:32:45.315Z,15.81
2023-04-29T12:35:46.929Z,15.82
2023-04-29T12:38:49.368Z,15.79
2023-04-29T12:41:56.070Z,15.79
2023-04-29T12:44:58.272Z,15.78
2023-04-29T12:48:01.610Z,15.75
2023-04-29T12:51:03.651Z,15.70
2023-04-29T12:54:07.293Z,15.63
2023-04-29T12:57:12.219Z,15.52
2023-04-29T13:00:14.729Z,15.44
2023-04-29T13:03:17.459Z,15.42
2023-04-29T13:06:20.704Z,15.40
2023-04-29T13:09:22.247Z,15.40
2023-04-29T13:12:23.826Z,15.40
2023-04-29T13:15:26.150Z,15.35
2023-04-29T13:18:27.791Z,15.31
2023-04-29T13:21:30.354Z,15.29
2023-04-29T13:24:33.116Z,15.22
2023-04-29T13:27:35.017Z,15.19
2023-04-29T13:30:36.959Z,15.17
2023-04-29T13:33:40.210Z,15.12
2023-04-29T13:36:41.903Z,14.99
2023-04-29T13:39:45.763Z,14.92
2023-04-29T13:42:50.791Z,14.85
2023-04-29T13:46:01.154Z,14.84
2023-04-29T13:49:28.824Z,14.85
2023-04-29T13:53:18.155Z,14.86
2023-04-29T13:56:23.530Z,14.78
2023-04-29T13:59:36.193Z,14.65
2023-04-29T14:02:30.568Z,14.56
2023-04-29T14:05:32.392Z,14.50
2023-04-29T14:08:34.081Z,14.47
2023-04-29T14:11:36.981Z,14.45
2023-04-29T14:14:38.716Z,14.41
2023-04-29T14:17:40.685Z,14.41
2023-04-29T14:20:42.273Z,14.35
2023-04-29T14:23:43.853Z,14.27
2023-04-29T14:26:45.452Z,14.21
2023-04-29T14:29:47.072Z,14.15
2023-04-29T14:32:48.666Z,14.08
2023-04-29T14:35:50.198Z,13.96
2023-04-29T14:38:51.838Z,13.80
2023-04-29T14:41:53.393Z,13.71
2023-04-29T14:44:55.229Z,13.66
2023-04-29T14:47:56.893Z,13.60
2023-04-29T14:50:58.566Z,13.55
2023-04-29T14:54:00.098Z,13.45
2023-04-29T14:57:02.305Z,13.36
2023-04-29T15:00:04.617Z,13.25
2023-04-29T15:03:06.294Z,13.11
2023-04-29T15:06:07.964Z,13.00
2023-04-29T15:09:09.856Z,12.89
2023-04-29T15:12:11.449Z,12.82
2023-04-29T15:15:13.023Z,12.72
2023-04-29T15:18:14.801Z,12.56
2023-04-29T15:21:16.616Z,12.42
2023-04-29T15:24:18.922Z,12.31
2023-04-29T15:27:21.509Z,12.19
2023-04-29T15:30:23.122Z,12.08
2023-04-29T15:33:24.655Z,11.98
2023-04-29T15:36:32.182Z,11.91
2023-04-29T15:39:33.866Z,11.82
2023-04-29T15:42:35.440Z,11.77
2023-04-29T15:45:37.322Z,11.72
2023-04-29T15:48:38.848Z,11.66
2023-04-29T15:51:40.458Z,11.61
2023-04-29T15:54:42.171Z,11.56
2023-04-29T15:57:43.737Z,11.49
2023-04-29T16:00:45.529Z,11.45
2023-04-29T16:03:47.112Z,11.40
2023-04-29T16:06:48.876Z,11.38
2023-04-29T16:09:50.454Z,11.33
2023-04-29T16:12:52.023Z,11.28
2023-04-29T16:15:54.651Z,11.21
2023-04-29T16:18:57.165Z,11.18
2023-04-29T16:21:58.801Z,11.18
2023-04-29T16:25:00.551Z,11.20
2023-04-29T16:28:02.306Z,11.18
2023-04-29T16:31:04.125Z,11.12
2023-04-29T16:34:05.783Z,11.06
2023-04-29T16:37:12.709Z,10.97
2023-04-29T16:40:14.423Z,10.94
2023-04-29T16:43:16.550Z,10.93
2023-04-29T16:46:18.234Z,10.89
2023-04-29T16:49:25.816Z,10.86
2023-04-29T16:52:27.396Z,10.80
2023-04-29T16:55:29.104Z,10.74
2023-04-29T16:58:31.206Z,10.68
2023-04-29T17:01:32.857Z,10.61
2023-04-29T17:04:34.524Z,10.54
2023-04-29T17:07:36.485Z,10.48
2023-04-29T17:10:38.371Z,10.44
2023-04-29T17:13:40.004Z,10.39
2023-04-29T17:16:41.857Z,10.33
2023-04-29T17:19:43.797Z,10.28
2023-04-29T17:22:45.513Z,10.26
2023-04-29T17:25:47.112Z,10.25
2023-04-29T17:28:48.716Z,10.25
2023-04-29T17:32:01.766Z,10.44
2023-04-29T17:35:03.558Z,10.60
2023-04-29T17:38:05.188Z,10.58
2023-04-29T17:41:06.856Z,10.47
2023-04-29T17:44:09.040Z,10.38
2023-04-29T17:47:11.142Z,10.27
2023-04-29T17:50:12.748Z,10.19
2023-04-29T17:53:14.367Z,10.12
2023-04-29T17:56:16.202Z,10.07
2023-04-29T17:59:17.728Z,9.99
2023-04-29T18:02:19.466Z,9.89
2023-04-29T18:05:21.291Z,9.81
2023-04-29T18:08:23.056Z,9.75
2023-04-29T18:11:27.625Z,9.69
2023-04-29T18:14:30.658Z,9.62
2023-04-29T18:17:33.719Z,9.56
2023-04-29T18:20:42.465Z,9.49
2023-04-29T18:23:44.062Z,9.40
2023-04-29T18:26:45.734Z,9.32
2023-04-29T18:29:47.279Z,9.20
2023-04-29T18:32:52.042Z,9.12
2023-04-29T18:35:54.710Z,9.01
2023-04-29T18:38:56.968Z,8.93
2023-04-29T18:41:58.515Z,8.88
2023-04-29T18:45:00.057Z,8.80
2023-04-29T18:48:06.774Z,8.76
2023-04-29T18:51:08.455Z,8.72
2023-04-29T18:54:10.035Z,8.93
2023-04-29T18:57:12.209Z,8.85
2023-04-29T19:00:15.417Z,8.77
2023-04-29T19:03:17.391Z,8.69
2023-04-29T19:06:19.380Z,8.64
2023-04-29T19:09:21.073Z,8.69
2023-04-29T19:12:22.640Z,8.66
2023-04-29T19:15:27.950Z,8.60
2023-04-29T19:18:29.710Z,8.52
2023-04-29T19:21:33.463Z,8.46
2023-04-29T19:24:37.046Z,8.38
2023-04-29T19:27:45.008Z,8.33
2023-04-29T19:30:46.731Z,8.28
2023-04-29T19:33:48.333Z,8.22
2023-04-29T19:36:50.627Z,8.18
2023-04-29T19:39:52.882Z,8.14
2023-04-29T19:42:54.590Z,8.10
2023-04-29T19:45:56.316Z,8.05
2023-04-29T19:48:57.893Z,8.01
2023-04-29T19:51:59.503Z,7.96
2023-04-29T19:55:01.006Z,7.92
2023-04-29T19:58:02.593Z,7.89
2023-04-29T20:01:04.205Z,7.84
2023-04-29T20:04:06.081Z,7.81
2023-04-29T20:07:07.819Z,7.78
2023-04-29T20:10:10.003Z,7.74
2023-04-29T20:13:11.654Z,7.70
2023-04-29T20:16:13.217Z,7.65
2023-04-29T20:19:15.292Z,7.64
2023-04-29T20:22:17.003Z,7.58
2023-04-29T20:25:18.850Z,7.54
2023-04-29T20:28:20.393Z,7.50
2023-04-29T20:31:22.028Z,7.46
2023-04-29T20:34:23.680Z,7.42
2023-04-29T20:37:25.857Z,7.38
2023-04-29T20:40:27.437Z,7.34
2023-04-29T20:43:29.287Z,7.27
2023-04-29T20:46:30.963Z,7.23
2023-04-29T20:49:32.691Z,7.18
2023-04-29T20:52:35.186Z,7.12
2023-04-29T20:55:37.966Z,7.05
2023-04-29T20:58:39.552Z,7.01
2023-04-29T21:01:41.222Z,6.95
2023-04-29T21:04:42.900Z,6.90
2023-04-29T21:07:44.590Z,6.84
2023-04-29T21:10:46.234Z,6.78
2023-04-29T21:13:50.291Z,6.73
2023-04-29T21:16:52.225Z,6.70
2023-04-29T21:19:54.094Z,6.62
2023-04-29T21:22:56.035Z,6.58
2023-04-29T21:25:57.562Z,6.53
2023-04-29T21:28:59.130Z,6.47
2023-04-29T21:32:00.701Z,6.43
2023-04-29T21:35:02.417Z,6.37
2023-04-29T21:38:04.007Z,6.32
2023-04-29T21:41:06.297Z,6.27
2023-04-29T21:44:07.999Z,6.23
2023-04-29T21:47:09.601Z,6.22
2023-04-29T21:50:11.803Z,6.17
2023-04-29T21:53:16.142Z,6.15
2023-04-29T21:56:18.437Z,6.12
2023-04-29T21:59:20.003Z,6.10
2023-04-29T22:02:25.698Z,6.08
2023-04-29T22:05:27.257Z,6.07
2023-04-29T22:08:28.939Z,6.05
2023-04-29T22:11:30.684Z,6.06
2023-04-29T22:14:32.260Z,6.03
2023-04-29T22:17:33.875Z,6.23
2023-04-29T22:20:35.862Z,6.19
2023-04-29T22:23:37.626Z,6.14
2023-04-29T22:26:39.157Z,6.05
2023-04-29T22:29:40.790Z,5.97
2023-04-29T22:32:42.413Z,5.89
2023-04-29T22:35:44.209Z,5.82
2023-04-29T22:38:45.808Z,5.73
2023-04-29T22:41:47.397Z,5.65
2023-04-29T22:44:49.023Z,5.57
2023-04-29T22:47:50.568Z,5.50
2023-04-29T22:50:59.367Z,5.43
2023-04-29T22:54:01.081Z,5.36
2023-04-29T22:57:04.092Z,5.30
2023-04-29T23:00:06.635Z,5.21
2023-04-29T23:03:08.226Z,5.14
2023-04-29T23:06:09.842Z,5.06
2023-04-29T23:09:11.740Z,4.99
2023-04-29T23:12:13.276Z,4.93
2023-04-29T23:15:14.811Z,4.89
2023-04-29T23:18:16.507Z,4.85
2023-04-29T23:21:18.043Z,4.81
2023-04-29T23:24:19.580Z,4.76
2023-04-29T23:27:21.104Z,4.69
2023-04-29T23:30:22.826Z,4.66
2023-04-29T23:33:24.366Z,4.60
2023-04-29T23:36:25.997Z,4.56
2023-04-29T23:39:27.843Z,4.50
2023-04-29T23:42:29.443Z,4.44
2023-04-29T23:45:31.030Z,4.41
2023-04-29T23:48:32.673Z,4.37
2023-04-29T23:51:34.317Z,4.33
2023-04-29T23:54:36.179Z,4.29
2023-04-29T23:57:37.790Z,4.27
